sensor_id;sensor_type;location;lat;lon;timestamp;P1;durP1;ratioP1;P2;durP2;ratioP2
11821;SDS011;5968;50.362;8.982;2022-07-29T00:01:16;0.70;;;0.70;;
11821;SDS011;5968;50.362;8.982;2022-07-29T00:03:45;1.27;;;0.90;;
11821;SDS011;5968;50.362;8.982;2022-07-29T00:06:14;0.73;;;0.57;;
11821;SDS011;5968;50.362;8.982;2022-07-29T00:08:42;4.67;;;1.00;;
11821;SDS011;5968;50.362;8.982;2022-07-29T00:11:10;8.03;;;1.10;;
11821;SDS011;5968;50.362;8.982;2022-07-29T00:13:38;1.70;;;0.90;;
11821;SDS011;5968;50.362;8.982;2022-07-29T00:16:05;1.33;;;0.70;;
11821;SDS011;5968;50.362;8.982;2022-07-29T00:18:35;2.33;;;0.97;;
11821;SDS011;5968;50.362;8.982;2022-07-29T00:21:03;0.80;;;0.70;;
11821;SDS011;5968;50.362;8.982;2022-07-29T00:23:32;1.23;;;0.80;;
11821;SDS011;5968;50.362;8.982;2022-07-29T00:26:02;0.70;;;0.70;;
11821;SDS011;5968;50.362;8.982;2022-07-29T00:28:30;0.83;;;0.77;;
11821;SDS011;5968;50.362;8.982;2022-07-29T00:30:57;0.80;;;0.80;;
11821;SDS011;5968;50.362;8.982;2022-07-29T00:33:25;0.70;;;0.70;;
11821;SDS011;5968;50.362;8.982;2022-07-29T00:35:53;1.73;;;0.70;;
11821;SDS011;5968;50.362;8.982;2022-07-29T00:38:22;1.20;;;0.80;;
11821;SDS011;5968;50.362;8.982;2022-07-29T00:40:51;0.87;;;0.77;;
11821;SDS011;5968;50.362;8.982;2022-07-29T00:43:19;2.17;;;0.90;;
11821;SDS011;5968;50.362;8.982;2022-07-29T00:45:47;1.33;;;0.97;;
11821;SDS011;5968;50.362;8.982;2022-07-29T00:48:15;0.97;;;0.87;;
11821;SDS011;5968;50.362;8.982;2022-07-29T00:50:43;1.70;;;1.00;;
11821;SDS011;5968;50.362;8.982;2022-07-29T00:53:10;0.80;;;0.80;;
11821;SDS011;5968;50.362;8.982;2022-07-29T00:55:39;1.60;;;0.90;;
11821;SDS011;5968;50.362;8.982;2022-07-29T00:58:08;3.30;;;1.07;;
11821;SDS011;5968;50.362;8.982;2022-07-29T01:00:42;1.07;;;1.03;;
11821;SDS011;5968;50.362;8.982;2022-07-29T01:03:10;1.43;;;0.90;;
11821;SDS011;5968;50.362;8.982;2022-07-29T01:05:38;1.50;;;1.10;;
11821;SDS011;5968;50.362;8.982;2022-07-29T01:08:16;2.90;;;0.80;;
11821;SDS011;5968;50.362;8.982;2022-07-29T01:10:45;1.73;;;0.80;;
11821;SDS011;5968;50.362;8.982;2022-07-29T01:13:16;0.77;;;0.77;;
11821;SDS011;5968;50.362;8.982;2022-07-29T01:15:46;6.40;;;0.97;;
11821;SDS011;5968;50.362;8.982;2022-07-29T01:18:20;0.77;;;0.77;;
11821;SDS011;5968;50.362;8.982;2022-07-29T01:21:10;1.17;;;0.83;;
11821;SDS011;5968;50.362;8.982;2022-07-29T01:26:57;1.17;;;0.90;;
11821;SDS011;5968;50.362;8.982;2022-07-29T01:29:34;3.17;;;1.23;;
11821;SDS011;5968;50.362;8.982;2022-07-29T01:32:07;1.73;;;1.00;;
11821;SDS011;5968;50.362;8.982;2022-07-29T01:34:54;1.57;;;0.90;;
11821;SDS011;5968;50.362;8.982;2022-07-29T01:37:26;1.40;;;0.90;;
11821;SDS011;5968;50.362;8.982;2022-07-29T01:39:59;2.17;;;1.03;;
11821;SDS011;5968;50.362;8.982;2022-07-29T01:42:32;4.53;;;1.00;;
11821;SDS011;5968;50.362;8.982;2022-07-29T01:45:12;1.10;;;1.00;;
11821;SDS011;5968;50.362;8.982;2022-07-29T01:47:43;2.40;;;0.80;;
11821;SDS011;5968;50.362;8.982;2022-07-29T01:50:14;3.87;;;1.30;;
11821;SDS011;5968;50.362;8.982;2022-07-29T01:52:46;1.73;;;1.10;;
11821;SDS011;5968;50.362;8.982;2022-07-29T01:55:24;1.27;;;0.70;;
11821;SDS011;5968;50.362;8.982;2022-07-29T01:57:55;1.53;;;1.00;;
11821;SDS011;5968;50.362;8.982;2022-07-29T02:00:27;1.43;;;1.20;;
11821;SDS011;5968;50.362;8.982;2022-07-29T02:02:57;1.10;;;1.00;;
11821;SDS011;5968;50.362;8.982;2022-07-29T02:05:28;2.40;;;1.20;;
11821;SDS011;5968;50.362;8.982;2022-07-29T02:07:59;2.53;;;1.17;;
11821;SDS011;5968;50.362;8.982;2022-07-29T02:10:29;4.73;;;1.20;;
11821;SDS011;5968;50.362;8.982;2022-07-29T02:13:00;1.20;;;1.00;;
11821;SDS011;5968;50.362;8.982;2022-07-29T02:15:32;2.10;;;1.23;;
11821;SDS011;5968;50.362;8.982;2022-07-29T02:18:05;1.80;;;0.93;;
11821;SDS011;5968;50.362;8.982;2022-07-29T02:20:34;1.53;;;1.17;;
11821;SDS011;5968;50.362;8.982;2022-07-29T02:23:03;1.53;;;1.20;;
11821;SDS011;5968;50.362;8.982;2022-07-29T02:25:31;1.20;;;1.00;;
11821;SDS011;5968;50.362;8.982;2022-07-29T02:28:03;1.27;;;1.10;;
11821;SDS011;5968;50.362;8.982;2022-07-29T02:30:36;2.30;;;1.20;;
11821;SDS011;5968;50.362;8.982;2022-07-29T02:33:09;2.83;;;1.00;;
11821;SDS011;5968;50.362;8.982;2022-07-29T02:35:41;1.47;;;0.80;;
11821;SDS011;5968;50.362;8.982;2022-07-29T02:38:12;1.33;;;0.93;;
11821;SDS011;5968;50.362;8.982;2022-07-29T02:40:59;1.60;;;1.07;;
11821;SDS011;5968;50.362;8.982;2022-07-29T02:43:28;1.20;;;1.10;;
11821;SDS011;5968;50.362;8.982;2022-07-29T02:46:00;2.70;;;1.03;;
11821;SDS011;5968;50.362;8.982;2022-07-29T02:48:31;2.30;;;1.00;;
11821;SDS011;5968;50.362;8.982;2022-07-29T02:51:05;1.33;;;1.10;;
11821;SDS011;5968;50.362;8.982;2022-07-29T02:53:58;1.33;;;0.90;;
11821;SDS011;5968;50.362;8.982;2022-07-29T02:56:29;2.07;;;1.10;;
11821;SDS011;5968;50.362;8.982;2022-07-29T02:59:03;1.20;;;0.93;;
11821;SDS011;5968;50.362;8.982;2022-07-29T03:01:36;1.63;;;0.80;;
11821;SDS011;5968;50.362;8.982;2022-07-29T03:04:08;1.30;;;1.13;;
11821;SDS011;5968;50.362;8.982;2022-07-29T03:06:39;1.10;;;1.00;;
11821;SDS011;5968;50.362;8.982;2022-07-29T03:09:11;2.40;;;0.70;;
11821;SDS011;5968;50.362;8.982;2022-07-29T03:11:40;0.80;;;0.80;;
11821;SDS011;5968;50.362;8.982;2022-07-29T03:14:15;1.73;;;0.83;;
11821;SDS011;5968;50.362;8.982;2022-07-29T03:16:47;1.93;;;0.70;;
11821;SDS011;5968;50.362;8.982;2022-07-29T03:19:16;1.53;;;0.80;;
11821;SDS011;5968;50.362;8.982;2022-07-29T03:21:44;3.33;;;1.10;;
11821;SDS011;5968;50.362;8.982;2022-07-29T03:24:24;1.07;;;0.73;;
11821;SDS011;5968;50.362;8.982;2022-07-29T03:26:57;8.37;;;1.20;;
11821;SDS011;5968;50.362;8.982;2022-07-29T03:29:25;2.80;;;1.27;;
11821;SDS011;5968;50.362;8.982;2022-07-29T03:32:01;3.60;;;1.07;;
11821;SDS011;5968;50.362;8.982;2022-07-29T03:34:34;0.73;;;0.70;;
11821;SDS011;5968;50.362;8.982;2022-07-29T03:37:02;1.67;;;1.00;;
11821;SDS011;5968;50.362;8.982;2022-07-29T03:39:33;2.07;;;1.10;;
11821;SDS011;5968;50.362;8.982;2022-07-29T03:42:03;6.47;;;1.27;;
11821;SDS011;5968;50.362;8.982;2022-07-29T03:44:33;1.10;;;1.00;;
11821;SDS011;5968;50.362;8.982;2022-07-29T03:47:04;1.23;;;0.97;;
11821;SDS011;5968;50.362;8.982;2022-07-29T03:49:36;1.00;;;1.00;;
11821;SDS011;5968;50.362;8.982;2022-07-29T03:52:08;1.20;;;1.10;;
11821;SDS011;5968;50.362;8.982;2022-07-29T03:54:36;1.57;;;0.90;;
11821;SDS011;5968;50.362;8.982;2022-07-29T03:57:04;0.87;;;0.70;;
11821;SDS011;5968;50.362;8.982;2022-07-29T03:59:34;1.07;;;1.00;;
11821;SDS011;5968;50.362;8.982;2022-07-29T04:02:03;6.40;;;1.30;;
11821;SDS011;5968;50.362;8.982;2022-07-29T04:04:35;1.30;;;1.17;;
11821;SDS011;5968;50.362;8.982;2022-07-29T04:07:03;1.00;;;0.90;;
11821;SDS011;5968;50.362;8.982;2022-07-29T04:09:32;3.70;;;1.03;;
11821;SDS011;5968;50.362;8.982;2022-07-29T04:12:00;1.17;;;1.00;;
11821;SDS011;5968;50.362;8.982;2022-07-29T04:14:30;1.27;;;0.80;;
11821;SDS011;5968;50.362;8.982;2022-07-29T04:16:58;1.67;;;1.10;;
11821;SDS011;5968;50.362;8.982;2022-07-29T04:19:28;3.67;;;1.50;;
11821;SDS011;5968;50.362;8.982;2022-07-29T04:21:56;1.60;;;1.20;;
11821;SDS011;5968;50.362;8.982;2022-07-29T04:24:24;1.60;;;1.10;;
11821;SDS011;5968;50.362;8.982;2022-07-29T04:26:52;4.57;;;1.00;;
11821;SDS011;5968;50.362;8.982;2022-07-29T04:29:20;1.83;;;1.10;;
11821;SDS011;5968;50.362;8.982;2022-07-29T04:31:48;1.47;;;1.10;;
11821;SDS011;5968;50.362;8.982;2022-07-29T04:34:16;1.37;;;1.27;;
11821;SDS011;5968;50.362;8.982;2022-07-29T04:36:46;1.67;;;1.57;;
11821;SDS011;5968;50.362;8.982;2022-07-29T04:39:14;1.90;;;1.37;;
11821;SDS011;5968;50.362;8.982;2022-07-29T04:41:48;2.43;;;1.27;;
11821;SDS011;5968;50.362;8.982;2022-07-29T04:44:22;2.60;;;1.30;;
11821;SDS011;5968;50.362;8.982;2022-07-29T04:46:54;3.97;;;1.57;;
11821;SDS011;5968;50.362;8.982;2022-07-29T04:49:23;2.53;;;1.43;;
11821;SDS011;5968;50.362;8.982;2022-07-29T04:51:53;3.20;;;1.70;;
11821;SDS011;5968;50.362;8.982;2022-07-29T04:54:26;2.43;;;1.37;;
11821;SDS011;5968;50.362;8.982;2022-07-29T04:56:53;1.90;;;1.00;;
11821;SDS011;5968;50.362;8.982;2022-07-29T04:59:21;1.10;;;1.00;;
11821;SDS011;5968;50.362;8.982;2022-07-29T05:01:49;2.00;;;1.27;;
11821;SDS011;5968;50.362;8.982;2022-07-29T05:04:20;1.67;;;1.00;;
11821;SDS011;5968;50.362;8.982;2022-07-29T05:06:49;2.57;;;1.30;;
11821;SDS011;5968;50.362;8.982;2022-07-29T05:09:18;0.83;;;0.83;;
11821;SDS011;5968;50.362;8.982;2022-07-29T05:11:46;2.17;;;1.13;;
11821;SDS011;5968;50.362;8.982;2022-07-29T05:16:57;3.67;;;1.10;;
11821;SDS011;5968;50.362;8.982;2022-07-29T05:19:25;1.20;;;0.97;;
11821;SDS011;5968;50.362;8.982;2022-07-29T05:21:53;0.87;;;0.83;;
11821;SDS011;5968;50.362;8.982;2022-07-29T05:24:22;3.70;;;1.17;;
11821;SDS011;5968;50.362;8.982;2022-07-29T05:26:50;2.03;;;1.30;;
11821;SDS011;5968;50.362;8.982;2022-07-29T05:29:18;1.73;;;1.10;;
11821;SDS011;5968;50.362;8.982;2022-07-29T05:32:06;1.40;;;1.13;;
11821;SDS011;5968;50.362;8.982;2022-07-29T05:34:34;1.53;;;1.20;;
11821;SDS011;5968;50.362;8.982;2022-07-29T05:37:02;4.50;;;1.10;;
11821;SDS011;5968;50.362;8.982;2022-07-29T05:39:31;1.10;;;1.00;;
11821;SDS011;5968;50.362;8.982;2022-07-29T05:42:15;1.97;;;1.03;;
11821;SDS011;5968;50.362;8.982;2022-07-29T05:44:43;0.70;;;0.70;;
11821;SDS011;5968;50.362;8.982;2022-07-29T05:47:11;3.53;;;1.20;;
11821;SDS011;5968;50.362;8.982;2022-07-29T05:49:39;1.87;;;1.20;;
11821;SDS011;5968;50.362;8.982;2022-07-29T05:52:07;1.43;;;1.10;;
11821;SDS011;5968;50.362;8.982;2022-07-29T05:54:37;2.40;;;1.30;;
11821;SDS011;5968;50.362;8.982;2022-07-29T05:57:05;1.10;;;1.00;;
11821;SDS011;5968;50.362;8.982;2022-07-29T05:59:34;1.70;;;1.53;;
11821;SDS011;5968;50.362;8.982;2022-07-29T06:02:06;2.90;;;2.17;;
11821;SDS011;5968;50.362;8.982;2022-07-29T06:04:36;1.50;;;1.07;;
11821;SDS011;5968;50.362;8.982;2022-07-29T06:07:04;1.97;;;1.20;;
11821;SDS011;5968;50.362;8.982;2022-07-29T06:09:32;0.90;;;0.90;;
11821;SDS011;5968;50.362;8.982;2022-07-29T06:12:04;2.10;;;0.90;;
11821;SDS011;5968;50.362;8.982;2022-07-29T06:14:33;1.67;;;0.80;;
11821;SDS011;5968;50.362;8.982;2022-07-29T06:17:01;1.63;;;1.10;;
11821;SDS011;5968;50.362;8.982;2022-07-29T06:19:29;1.43;;;1.07;;
11821;SDS011;5968;50.362;8.982;2022-07-29T06:21:58;0.87;;;0.87;;
11821;SDS011;5968;50.362;8.982;2022-07-29T06:24:27;1.17;;;1.07;;
11821;SDS011;5968;50.362;8.982;2022-07-29T06:26:55;3.53;;;1.13;;
11821;SDS011;5968;50.362;8.982;2022-07-29T06:29:24;2.33;;;1.17;;
11821;SDS011;5968;50.362;8.982;2022-07-29T06:31:53;3.87;;;1.17;;
11821;SDS011;5968;50.362;8.982;2022-07-29T06:34:21;0.90;;;0.90;;
11821;SDS011;5968;50.362;8.982;2022-07-29T06:36:56;2.47;;;1.20;;
11821;SDS011;5968;50.362;8.982;2022-07-29T06:39:24;0.90;;;0.90;;
11821;SDS011;5968;50.362;8.982;2022-07-29T06:41:53;4.50;;;0.80;;
11821;SDS011;5968;50.362;8.982;2022-07-29T06:44:21;1.17;;;1.10;;
11821;SDS011;5968;50.362;8.982;2022-07-29T06:46:50;0.87;;;0.87;;
11821;SDS011;5968;50.362;8.982;2022-07-29T06:49:20;1.17;;;0.97;;
11821;SDS011;5968;50.362;8.982;2022-07-29T06:51:49;0.80;;;0.80;;
11821;SDS011;5968;50.362;8.982;2022-07-29T06:54:17;1.10;;;1.00;;
11821;SDS011;5968;50.362;8.982;2022-07-29T06:59:18;1.67;;;1.10;;
11821;SDS011;5968;50.362;8.982;2022-07-29T07:02:01;2.13;;;0.97;;
11821;SDS011;5968;50.362;8.982;2022-07-29T07:04:29;1.20;;;1.10;;
11821;SDS011;5968;50.362;8.982;2022-07-29T07:07:05;2.07;;;1.30;;
11821;SDS011;5968;50.362;8.982;2022-07-29T07:09:45;1.47;;;1.37;;
11821;SDS011;5968;50.362;8.982;2022-07-29T07:12:14;3.47;;;1.30;;
11821;SDS011;5968;50.362;8.982;2022-07-29T07:17:34;1.07;;;0.97;;
11821;SDS011;5968;50.362;8.982;2022-07-29T07:20:04;4.10;;;3.13;;
11821;SDS011;5968;50.362;8.982;2022-07-29T07:22:35;3.53;;;1.83;;
11821;SDS011;5968;50.362;8.982;2022-07-29T07:25:05;1.90;;;1.20;;
11821;SDS011;5968;50.362;8.982;2022-07-29T07:27:34;6.73;;;4.90;;
11821;SDS011;5968;50.362;8.982;2022-07-29T07:32:36;31.40;;;17.60;;
11821;SDS011;5968;50.362;8.982;2022-07-29T07:35:05;11.50;;;7.20;;
11821;SDS011;5968;50.362;8.982;2022-07-29T07:37:37;7.27;;;4.37;;
11821;SDS011;5968;50.362;8.982;2022-07-29T07:40:08;5.47;;;2.80;;
11821;SDS011;5968;50.362;8.982;2022-07-29T07:42:43;2.50;;;2.07;;
11821;SDS011;5968;50.362;8.982;2022-07-29T07:45:11;2.57;;;1.40;;
11821;SDS011;5968;50.362;8.982;2022-07-29T07:47:43;2.03;;;1.57;;
11821;SDS011;5968;50.362;8.982;2022-07-29T07:50:16;2.13;;;1.70;;
11821;SDS011;5968;50.362;8.982;2022-07-29T07:52:48;4.40;;;2.73;;
11821;SDS011;5968;50.362;8.982;2022-07-29T07:55:17;2.73;;;1.60;;
11821;SDS011;5968;50.362;8.982;2022-07-29T07:57:45;1.30;;;1.20;;
11821;SDS011;5968;50.362;8.982;2022-07-29T08:00:14;1.80;;;1.20;;
11821;SDS011;5968;50.362;8.982;2022-07-29T08:02:44;5.93;;;4.00;;
11821;SDS011;5968;50.362;8.982;2022-07-29T08:05:12;2.83;;;1.87;;
11821;SDS011;5968;50.362;8.982;2022-07-29T08:07:44;1.53;;;1.43;;
11821;SDS011;5968;50.362;8.982;2022-07-29T08:10:13;2.67;;;2.10;;
11821;SDS011;5968;50.362;8.982;2022-07-29T08:13:02;3.93;;;1.73;;
11821;SDS011;5968;50.362;8.982;2022-07-29T08:15:38;1.40;;;1.30;;
11821;SDS011;5968;50.362;8.982;2022-07-29T08:18:11;2.60;;;1.60;;
11821;SDS011;5968;50.362;8.982;2022-07-29T08:20:47;1.20;;;1.17;;
11821;SDS011;5968;50.362;8.982;2022-07-29T08:23:22;1.17;;;1.10;;
11821;SDS011;5968;50.362;8.982;2022-07-29T08:25:52;2.60;;;1.73;;
11821;SDS011;5968;50.362;8.982;2022-07-29T08:28:20;14.40;;;9.53;;
11821;SDS011;5968;50.362;8.982;2022-07-29T08:30:51;4.50;;;2.83;;
11821;SDS011;5968;50.362;8.982;2022-07-29T08:33:20;4.77;;;2.43;;
11821;SDS011;5968;50.362;8.982;2022-07-29T08:35:48;6.70;;;4.90;;
11821;SDS011;5968;50.362;8.982;2022-07-29T08:38:17;9.23;;;5.80;;
11821;SDS011;5968;50.362;8.982;2022-07-29T08:40:44;7.70;;;3.40;;
11821;SDS011;5968;50.362;8.982;2022-07-29T08:43:13;4.70;;;3.43;;
11821;SDS011;5968;50.362;8.982;2022-07-29T08:45:42;8.17;;;4.93;;
11821;SDS011;5968;50.362;8.982;2022-07-29T08:48:14;20.67;;;11.43;;
11821;SDS011;5968;50.362;8.982;2022-07-29T08:50:46;12.90;;;8.90;;
11821;SDS011;5968;50.362;8.982;2022-07-29T08:53:17;16.93;;;9.17;;
11821;SDS011;5968;50.362;8.982;2022-07-29T08:55:47;17.37;;;9.00;;
11821;SDS011;5968;50.362;8.982;2022-07-29T08:58:17;50.10;;;24.93;;
11821;SDS011;5968;50.362;8.982;2022-07-29T09:00:51;20.33;;;10.63;;
11821;SDS011;5968;50.362;8.982;2022-07-29T09:03:23;32.47;;;16.10;;
11821;SDS011;5968;50.362;8.982;2022-07-29T09:05:53;10.47;;;4.63;;
11821;SDS011;5968;50.362;8.982;2022-07-29T09:08:29;23.53;;;13.00;;
11821;SDS011;5968;50.362;8.982;2022-07-29T09:11:00;15.97;;;9.23;;
11821;SDS011;5968;50.362;8.982;2022-07-29T09:13:31;9.63;;;4.23;;
11821;SDS011;5968;50.362;8.982;2022-07-29T09:15:59;5.73;;;3.40;;
11821;SDS011;5968;50.362;8.982;2022-07-29T09:18:36;5.50;;;2.77;;
11821;SDS011;5968;50.362;8.982;2022-07-29T09:21:06;4.00;;;2.07;;
11821;SDS011;5968;50.362;8.982;2022-07-29T09:24:01;3.60;;;2.33;;
11821;SDS011;5968;50.362;8.982;2022-07-29T09:26:31;1.80;;;1.70;;
11821;SDS011;5968;50.362;8.982;2022-07-29T09:29:07;2.93;;;2.47;;
11821;SDS011;5968;50.362;8.982;2022-07-29T09:31:37;4.10;;;2.17;;
11821;SDS011;5968;50.362;8.982;2022-07-29T09:34:07;3.27;;;2.30;;
11821;SDS011;5968;50.362;8.982;2022-07-29T09:36:41;4.87;;;3.30;;
11821;SDS011;5968;50.362;8.982;2022-07-29T09:39:11;9.53;;;5.20;;
11821;SDS011;5968;50.362;8.982;2022-07-29T09:41:47;3.73;;;2.60;;
11821;SDS011;5968;50.362;8.982;2022-07-29T09:44:15;6.80;;;4.60;;
11821;SDS011;5968;50.362;8.982;2022-07-29T09:49:33;2.57;;;2.03;;
11821;SDS011;5968;50.362;8.982;2022-07-29T09:52:04;4.80;;;3.20;;
11821;SDS011;5968;50.362;8.982;2022-07-29T09:54:34;3.73;;;3.03;;
11821;SDS011;5968;50.362;8.982;2022-07-29T09:57:06;2.53;;;1.80;;
11821;SDS011;5968;50.362;8.982;2022-07-29T09:59:38;5.23;;;3.30;;
11821;SDS011;5968;50.362;8.982;2022-07-29T10:02:15;2.23;;;2.07;;
11821;SDS011;5968;50.362;8.982;2022-07-29T10:04:49;2.77;;;2.10;;
11821;SDS011;5968;50.362;8.982;2022-07-29T10:07:18;9.80;;;5.87;;
11821;SDS011;5968;50.362;8.982;2022-07-29T10:12:22;6.37;;;4.57;;
11821;SDS011;5968;50.362;8.982;2022-07-29T10:14:51;3.30;;;1.93;;
11821;SDS011;5968;50.362;8.982;2022-07-29T10:17:19;3.37;;;2.07;;
11821;SDS011;5968;50.362;8.982;2022-07-29T10:19:48;2.37;;;2.03;;
11821;SDS011;5968;50.362;8.982;2022-07-29T10:22:20;3.57;;;2.40;;
11821;SDS011;5968;50.362;8.982;2022-07-29T10:25:08;3.63;;;1.80;;
11821;SDS011;5968;50.362;8.982;2022-07-29T10:27:37;2.50;;;1.90;;
11821;SDS011;5968;50.362;8.982;2022-07-29T10:30:18;3.20;;;2.43;;
11821;SDS011;5968;50.362;8.982;2022-07-29T10:32:51;6.50;;;3.50;;
11821;SDS011;5968;50.362;8.982;2022-07-29T10:35:34;3.97;;;1.80;;
11821;SDS011;5968;50.362;8.982;2022-07-29T10:41:13;3.20;;;2.23;;
11821;SDS011;5968;50.362;8.982;2022-07-29T10:43:58;4.07;;;3.23;;
11821;SDS011;5968;50.362;8.982;2022-07-29T10:49:09;8.80;;;4.73;;
11821;SDS011;5968;50.362;8.982;2022-07-29T10:51:54;5.03;;;3.87;;
11821;SDS011;5968;50.362;8.982;2022-07-29T10:54:44;8.43;;;5.47;;
11821;SDS011;5968;50.362;8.982;2022-07-29T10:57:18;7.23;;;3.80;;
11821;SDS011;5968;50.362;8.982;2022-07-29T11:03:01;6.47;;;3.50;;
11821;SDS011;5968;50.362;8.982;2022-07-29T11:05:53;5.77;;;3.67;;
11821;SDS011;5968;50.362;8.982;2022-07-29T11:08:27;10.40;;;6.97;;
11821;SDS011;5968;50.362;8.982;2022-07-29T11:14:01;4.37;;;3.03;;
11821;SDS011;5968;50.362;8.982;2022-07-29T11:16:58;10.30;;;6.97;;
11821;SDS011;5968;50.362;8.982;2022-07-29T11:19:33;3.10;;;2.10;;
11821;SDS011;5968;50.362;8.982;2022-07-29T11:22:07;7.87;;;4.97;;
11821;SDS011;5968;50.362;8.982;2022-07-29T11:24:36;3.23;;;2.63;;
11821;SDS011;5968;50.362;8.982;2022-07-29T11:27:19;4.77;;;3.53;;
11821;SDS011;5968;50.362;8.982;2022-07-29T11:29:55;7.57;;;3.87;;
11821;SDS011;5968;50.362;8.982;2022-07-29T11:32:35;4.73;;;3.00;;
11821;SDS011;5968;50.362;8.982;2022-07-29T11:35:17;4.28;;;2.15;;
11821;SDS011;5968;50.362;8.982;2022-07-29T11:43:51;7.32;;;5.07;;
11821;SDS011;5968;50.362;8.982;2022-07-29T11:49:18;3.55;;;2.10;;
11821;SDS011;5968;50.362;8.982;2022-07-29T11:51:59;7.07;;;4.35;;
11821;SDS011;5968;50.362;8.982;2022-07-29T11:54:36;11.13;;;7.13;;
11821;SDS011;5968;50.362;8.982;2022-07-29T11:57:25;7.75;;;4.82;;
11821;SDS011;5968;50.362;8.982;2022-07-29T12:00:04;8.27;;;4.95;;
11821;SDS011;5968;50.362;8.982;2022-07-29T12:02:41;3.70;;;2.20;;
11821;SDS011;5968;50.362;8.982;2022-07-29T12:08:23;4.20;;;2.53;;
11821;SDS011;5968;50.362;8.982;2022-07-29T12:10:52;3.47;;;1.80;;
11821;SDS011;5968;50.362;8.982;2022-07-29T12:13:20;3.17;;;1.98;;
11821;SDS011;5968;50.362;8.982;2022-07-29T12:16:03;5.95;;;4.20;;
11821;SDS011;5968;50.362;8.982;2022-07-29T12:18:55;2.85;;;2.00;;
11821;SDS011;5968;50.362;8.982;2022-07-29T12:21:27;3.35;;;2.00;;
11821;SDS011;5968;50.362;8.982;2022-07-29T12:23:56;1.63;;;1.52;;
11821;SDS011;5968;50.362;8.982;2022-07-29T12:26:48;5.90;;;3.63;;
11821;SDS011;5968;50.362;8.982;2022-07-29T12:32:02;4.53;;;2.85;;
11821;SDS011;5968;50.362;8.982;2022-07-29T12:34:44;3.15;;;2.17;;
11821;SDS011;5968;50.362;8.982;2022-07-29T12:37:12;3.78;;;2.30;;
11821;SDS011;5968;50.362;8.982;2022-07-29T12:39:41;3.10;;;2.00;;
11821;SDS011;5968;50.362;8.982;2022-07-29T12:42:10;2.20;;;1.88;;
11821;SDS011;5968;50.362;8.982;2022-07-29T12:44:51;9.88;;;6.22;;
11821;SDS011;5968;50.362;8.982;2022-07-29T12:47:19;8.52;;;5.05;;
11821;SDS011;5968;50.362;8.982;2022-07-29T12:49:49;6.75;;;4.60;;
11821;SDS011;5968;50.362;8.982;2022-07-29T12:52:25;3.22;;;2.30;;
11821;SDS011;5968;50.362;8.982;2022-07-29T12:54:57;3.78;;;2.13;;
11821;SDS011;5968;50.362;8.982;2022-07-29T12:57:26;10.10;;;6.00;;
11821;SDS011;5968;50.362;8.982;2022-07-29T13:00:04;12.52;;;8.05;;
11821;SDS011;5968;50.362;8.982;2022-07-29T13:02:42;5.75;;;3.40;;
11821;SDS011;5968;50.362;8.982;2022-07-29T13:05:11;6.35;;;4.20;;
11821;SDS011;5968;50.362;8.982;2022-07-29T13:07:46;17.48;;;11.45;;
11821;SDS011;5968;50.362;8.982;2022-07-29T13:10:22;5.32;;;3.28;;
11821;SDS011;5968;50.362;8.982;2022-07-29T13:13:05;5.97;;;4.15;;
11821;SDS011;5968;50.362;8.982;2022-07-29T13:15:35;13.48;;;9.15;;
11821;SDS011;5968;50.362;8.982;2022-07-29T13:18:25;5.45;;;4.20;;
11821;SDS011;5968;50.362;8.982;2022-07-29T13:20:55;12.80;;;7.55;;
11821;SDS011;5968;50.362;8.982;2022-07-29T13:23:24;7.00;;;5.47;;
11821;SDS011;5968;50.362;8.982;2022-07-29T13:25:52;5.35;;;3.25;;
11821;SDS011;5968;50.362;8.982;2022-07-29T13:28:20;5.70;;;4.20;;
11821;SDS011;5968;50.362;8.982;2022-07-29T13:30:48;2.60;;;2.33;;
11821;SDS011;5968;50.362;8.982;2022-07-29T13:33:16;7.25;;;2.58;;
11821;SDS011;5968;50.362;8.982;2022-07-29T13:35:43;4.30;;;3.33;;
11821;SDS011;5968;50.362;8.982;2022-07-29T13:38:13;5.47;;;4.82;;
11821;SDS011;5968;50.362;8.982;2022-07-29T13:40:47;6.68;;;4.05;;
11821;SDS011;5968;50.362;8.982;2022-07-29T13:43:15;7.47;;;5.20;;
11821;SDS011;5968;50.362;8.982;2022-07-29T13:45:44;6.93;;;4.75;;
11821;SDS011;5968;50.362;8.982;2022-07-29T13:48:11;4.05;;;2.47;;
11821;SDS011;5968;50.362;8.982;2022-07-29T13:50:42;1.90;;;1.80;;
11821;SDS011;5968;50.362;8.982;2022-07-29T13:53:23;3.88;;;2.83;;
11821;SDS011;5968;50.362;8.982;2022-07-29T13:55:58;2.65;;;2.28;;
11821;SDS011;5968;50.362;8.982;2022-07-29T14:01:23;2.83;;;1.70;;
11821;SDS011;5968;50.362;8.982;2022-07-29T14:06:38;2.05;;;1.85;;
11821;SDS011;5968;50.362;8.982;2022-07-29T14:09:08;1.80;;;1.70;;
11821;SDS011;5968;50.362;8.982;2022-07-29T14:11:35;1.92;;;1.83;;
11821;SDS011;5968;50.362;8.982;2022-07-29T14:14:06;4.82;;;1.85;;
11821;SDS011;5968;50.362;8.982;2022-07-29T14:16:36;2.03;;;1.85;;
11821;SDS011;5968;50.362;8.982;2022-07-29T14:19:14;1.98;;;1.80;;
11821;SDS011;5968;50.362;8.982;2022-07-29T14:21:43;2.08;;;1.95;;
11821;SDS011;5968;50.362;8.982;2022-07-29T14:24:12;5.20;;;1.80;;
11821;SDS011;5968;50.362;8.982;2022-07-29T14:26:46;1.95;;;1.85;;
11821;SDS011;5968;50.362;8.982;2022-07-29T14:32:03;4.22;;;1.63;;
11821;SDS011;5968;50.362;8.982;2022-07-29T14:34:32;2.22;;;2.03;;
11821;SDS011;5968;50.362;8.982;2022-07-29T14:37:01;2.05;;;1.88;;
11821;SDS011;5968;50.362;8.982;2022-07-29T14:39:33;1.95;;;1.58;;
11821;SDS011;5968;50.362;8.982;2022-07-29T14:42:09;3.25;;;2.00;;
11821;SDS011;5968;50.362;8.982;2022-07-29T14:44:39;3.15;;;1.90;;
11821;SDS011;5968;50.362;8.982;2022-07-29T14:47:07;5.13;;;2.10;;
11821;SDS011;5968;50.362;8.982;2022-07-29T14:49:35;2.40;;;2.10;;
11821;SDS011;5968;50.362;8.982;2022-07-29T14:52:04;2.17;;;1.98;;
11821;SDS011;5968;50.362;8.982;2022-07-29T14:54:33;1.70;;;1.60;;
11821;SDS011;5968;50.362;8.982;2022-07-29T14:57:01;2.35;;;1.73;;
11821;SDS011;5968;50.362;8.982;2022-07-29T14:59:29;2.28;;;2.08;;
11821;SDS011;5968;50.362;8.982;2022-07-29T15:01:57;3.13;;;2.20;;
11821;SDS011;5968;50.362;8.982;2022-07-29T15:04:26;3.38;;;2.17;;
11821;SDS011;5968;50.362;8.982;2022-07-29T15:06:54;2.40;;;2.17;;
11821;SDS011;5968;50.362;8.982;2022-07-29T15:09:26;2.00;;;1.88;;
11821;SDS011;5968;50.362;8.982;2022-07-29T15:12:04;2.95;;;2.22;;
11821;SDS011;5968;50.362;8.982;2022-07-29T15:14:33;2.05;;;1.85;;
11821;SDS011;5968;50.362;8.982;2022-07-29T15:17:01;2.20;;;2.00;;
11821;SDS011;5968;50.362;8.982;2022-07-29T15:19:30;2.03;;;1.73;;
11821;SDS011;5968;50.362;8.982;2022-07-29T15:21:58;3.63;;;1.45;;
11821;SDS011;5968;50.362;8.982;2022-07-29T15:24:27;9.02;;;1.50;;
11821;SDS011;5968;50.362;8.982;2022-07-29T15:26:54;4.50;;;2.00;;
11821;SDS011;5968;50.362;8.982;2022-07-29T15:29:24;1.95;;;1.60;;
11821;SDS011;5968;50.362;8.982;2022-07-29T15:31:51;8.77;;;2.42;;
11821;SDS011;5968;50.362;8.982;2022-07-29T15:34:19;2.35;;;1.85;;
11821;SDS011;5968;50.362;8.982;2022-07-29T15:36:58;5.20;;;1.70;;
11821;SDS011;5968;50.362;8.982;2022-07-29T15:39:26;3.50;;;2.10;;
11821;SDS011;5968;50.362;8.982;2022-07-29T15:41:54;4.00;;;2.47;;
11821;SDS011;5968;50.362;8.982;2022-07-29T15:44:23;1.90;;;1.80;;
11821;SDS011;5968;50.362;8.982;2022-07-29T15:46:51;2.30;;;2.10;;
11821;SDS011;5968;50.362;8.982;2022-07-29T15:49:33;2.27;;;2.07;;
11821;SDS011;5968;50.362;8.982;2022-07-29T15:52:14;4.30;;;2.20;;
11821;SDS011;5968;50.362;8.982;2022-07-29T15:54:51;8.00;;;2.50;;
11821;SDS011;5968;50.362;8.982;2022-07-29T15:59:55;1.70;;;1.60;;
11821;SDS011;5968;50.362;8.982;2022-07-29T16:02:23;2.30;;;2.10;;
11821;SDS011;5968;50.362;8.982;2022-07-29T16:04:51;2.10;;;2.00;;
11821;SDS011;5968;50.362;8.982;2022-07-29T16:07:20;2.50;;;1.87;;
11821;SDS011;5968;50.362;8.982;2022-07-29T16:09:50;2.23;;;1.97;;
11821;SDS011;5968;50.362;8.982;2022-07-29T16:12:20;3.33;;;1.80;;
11821;SDS011;5968;50.362;8.982;2022-07-29T16:14:48;1.70;;;1.60;;
11821;SDS011;5968;50.362;8.982;2022-07-29T16:17:18;1.60;;;1.50;;
11821;SDS011;5968;50.362;8.982;2022-07-29T16:19:46;2.17;;;1.77;;
11821;SDS011;5968;50.362;8.982;2022-07-29T16:22:14;2.50;;;1.87;;
11821;SDS011;5968;50.362;8.982;2022-07-29T16:24:47;1.77;;;1.67;;